createdAt,value
2023-03-03T00:00:33.298Z,49.01
2023-03-03T00:03:19.347Z,49.08
2023-03-03T00:05:46.304Z,48.97
2023-03-03T00:08:13.424Z,48.89
2023-03-03T00:10:40.197Z,48.82
2023-03-03T00:13:16.424Z,49.08
2023-03-03T00:15:43.400Z,49.02
2023-03-03T00:18:26.981Z,48.80
2023-03-03T00:20:55.091Z,48.93
2023-03-03T00:23:32.255Z,48.88
2023-03-03T00:25:59.508Z,48.83
2023-03-03T00:28:41.607Z,48.97
2023-03-03T00:31:33.517Z,49.09
2023-03-03T00:34:24.809Z,48.57
2023-03-03T00:36:56.246Z,48.82
2023-03-03T00:39:23.322Z,48.89
2023-03-03T00:41:50.168Z,49.06
2023-03-03T00:44:39.746Z,48.68
2023-03-03T00:47:30.743Z,48.94
2023-03-03T00:50:07.571Z,48.77
2023-03-03T00:52:43.462Z,48.97
2023-03-03T00:55:10.600Z,48.81
2023-03-03T00:57:37.333Z,48.98
2023-03-03T01:00:04.971Z,48.99
2023-03-03T01:02:31.781Z,48.82
2023-03-03T01:04:58.847Z,49.01
2023-03-03T01:07:25.818Z,49.06
2023-03-03T01:09:52.864Z,48.90
2023-03-03T01:12:19.624Z,48.74
2023-03-03T01:14:49.323Z,48.62
2023-03-03T01:17:16.098Z,48.97
2023-03-03T01:19:43.157Z,49.19
2023-03-03T01:22:09.937Z,48.85
2023-03-03T01:24:37.004Z,49.06
2023-03-03T01:27:03.797Z,49.23
2023-03-03T01:29:30.945Z,49.24
2023-03-03T01:31:57.791Z,49.07
2023-03-03T01:34:25.156Z,49.15
2023-03-03T01:36:51.904Z,49.11
2023-03-03T01:39:18.964Z,49.21
2023-03-03T01:41:45.812Z,49.07
2023-03-03T01:44:15.865Z,49.38
2023-03-03T01:47:04.656Z,48.93
2023-03-03T01:49:43.222Z,49.14
2023-03-03T01:52:15.527Z,48.96
2023-03-03T01:54:44.991Z,49.09
2023-03-03T01:57:14.682Z,49.29
2023-03-03T01:59:44.526Z,49.00
2023-03-03T02:02:11.317Z,49.06
2023-03-03T02:04:38.478Z,49.03
2023-03-03T02:07:11.166Z,49.42
2023-03-03T02:10:00.918Z,49.35
2023-03-03T02:12:36.198Z,49.15
2023-03-03T02:15:16.120Z,49.27
2023-03-03T02:17:42.834Z,49.43
2023-03-03T02:20:19.102Z,49.39
2023-03-03T02:23:30.398Z,49.26
2023-03-03T02:25:59.021Z,49.52
2023-03-03T02:28:30.365Z,49.35
2023-03-03T02:30:58.462Z,49.17
2023-03-03T02:33:25.657Z,49.29
2023-03-03T02:35:52.790Z,49.44
2023-03-03T02:38:31.204Z,49.06
2023-03-03T02:41:17.009Z,49.22
2023-03-03T02:44:05.649Z,49.14
2023-03-03T02:46:40.043Z,49.54
2023-03-03T02:49:07.588Z,49.45
2023-03-03T02:51:34.993Z,49.05
2023-03-03T02:54:01.998Z,49.32
2023-03-03T02:56:29.171Z,49.67
2023-03-03T02:58:55.983Z,49.26
2023-03-03T03:01:23.176Z,49.10
2023-03-03T03:03:50.081Z,49.20
2023-03-03T03:06:17.232Z,49.29
2023-03-03T03:08:43.967Z,49.55
2023-03-03T03:11:11.089Z,49.36
2023-03-03T03:13:37.798Z,49.32
2023-03-03T03:16:05.296Z,48.95
2023-03-03T03:18:32.139Z,49.25
2023-03-03T03:21:06.632Z,49.36
2023-03-03T03:23:34.563Z,49.35
2023-03-03T03:26:01.690Z,49.26
2023-03-03T03:28:28.454Z,49.44
2023-03-03T03:30:55.600Z,49.23
2023-03-03T03:33:22.465Z,49.26
2023-03-03T03:35:50.496Z,49.17
2023-03-03T03:38:17.459Z,49.31
2023-03-03T03:40:44.559Z,49.14
2023-03-03T03:43:11.384Z,49.13
2023-03-03T03:45:38.500Z,49.40
2023-03-03T03:48:05.424Z,49.32
2023-03-03T03:50:32.437Z,48.95
2023-03-03T03:52:59.202Z,49.41
2023-03-03T03:55:26.239Z,49.54
2023-03-03T03:57:52.994Z,49.51
2023-03-03T04:00:20.271Z,49.10
2023-03-03T04:02:47.174Z,49.26
2023-03-03T04:05:14.391Z,49.35
2023-03-03T04:07:41.205Z,49.32
2023-03-03T04:10:08.973Z,49.59
2023-03-03T04:12:38.645Z,49.11
2023-03-03T04:15:10.322Z,49.66
2023-03-03T04:17:37.099Z,49.34
2023-03-03T04:20:04.772Z,49.65
2023-03-03T04:22:36.006Z,49.62
2023-03-03T04:25:05.283Z,49.68
2023-03-03T04:27:33.239Z,49.67
2023-03-03T04:30:00.339Z,49.63
2023-03-03T04:32:27.129Z,49.47
2023-03-03T04:35:05.639Z,49.26
2023-03-03T04:37:34.390Z,49.71
2023-03-03T04:40:01.431Z,49.84
2023-03-03T04:42:28.925Z,49.53
2023-03-03T04:44:55.991Z,49.83
2023-03-03T04:47:22.727Z,49.50
2023-03-03T04:49:49.820Z,49.72
2023-03-03T04:52:16.580Z,49.76
2023-03-03T04:54:43.721Z,49.40
2023-03-03T04:57:10.489Z,49.62
2023-03-03T04:59:37.569Z,49.84
2023-03-03T05:02:05.402Z,49.86
2023-03-03T05:04:33.128Z,49.38
2023-03-03T05:06:59.916Z,49.27
2023-03-03T05:09:27.014Z,49.58
2023-03-03T05:11:54.157Z,49.80
2023-03-03T05:14:21.251Z,49.60
2023-03-03T05:16:48.014Z,49.46
2023-03-03T05:19:15.120Z,49.39
2023-03-03T05:21:42.616Z,49.34
2023-03-03T05:24:10.807Z,49.54
2023-03-03T05:26:37.701Z,49.37
2023-03-03T05:29:04.937Z,49.54
2023-03-03T05:31:31.750Z,49.47
2023-03-03T05:33:58.899Z,49.33
2023-03-03T05:36:25.748Z,49.42
2023-03-03T05:38:52.924Z,49.51
2023-03-03T05:41:19.740Z,49.18
2023-03-03T05:43:46.808Z,49.27
2023-03-03T05:46:13.644Z,49.13
2023-03-03T05:48:40.830Z,49.41
2023-03-03T05:51:07.612Z,49.41
2023-03-03T05:53:34.735Z,49.44
2023-03-03T05:56:01.462Z,49.14
2023-03-03T05:58:28.641Z,49.19
2023-03-03T06:00:55.382Z,49.33
2023-03-03T06:03:22.610Z,49.29
2023-03-03T06:05:49.373Z,48.96
2023-03-03T06:08:16.508Z,49.16
2023-03-03T06:10:43.280Z,48.87
2023-03-03T06:13:10.344Z,49.17
2023-03-03T06:15:37.216Z,49.20
2023-03-03T06:18:04.388Z,49.23
2023-03-03T06:20:31.728Z,49.22
2023-03-03T06:22:58.832Z,49.18
2023-03-03T06:25:25.563Z,49.28
2023-03-03T06:27:52.701Z,49.18
2023-03-03T06:30:19.546Z,48.81
2023-03-03T06:32:46.901Z,49.24
2023-03-03T06:35:13.811Z,49.06
2023-03-03T06:37:40.883Z,49.26
2023-03-03T06:40:08.226Z,49.31
2023-03-03T06:42:35.302Z,49.00
2023-03-03T06:45:02.024Z,49.13
2023-03-03T06:47:29.070Z,49.18
2023-03-03T06:49:55.828Z,49.14
2023-03-03T06:52:24.569Z,49.21
2023-03-03T06:54:53.818Z,49.25
2023-03-03T06:57:27.953Z,49.47
2023-03-03T06:59:57.144Z,49.39
2023-03-03T07:02:24.248Z,49.20
2023-03-03T07:04:51.054Z,49.51
2023-03-03T07:07:25.534Z,49.21
2023-03-03T07:09:54.273Z,49.60
2023-03-03T07:12:27.266Z,49.34
2023-03-03T07:15:22.368Z,49.60
2023-03-03T07:17:51.334Z,49.23
2023-03-03T07:20:19.605Z,49.31
2023-03-03T07:22:46.738Z,49.20
2023-03-03T07:25:30.194Z,49.44
2023-03-03T07:28:04.505Z,49.57
2023-03-03T07:30:31.340Z,49.47
2023-03-03T07:32:58.577Z,49.58
2023-03-03T07:35:44.361Z,49.49
2023-03-03T07:38:20.638Z,49.59
2023-03-03T07:40:55.352Z,49.43
2023-03-03T07:43:48.609Z,49.41
2023-03-03T07:46:29.335Z,49.23
2023-03-03T07:48:57.696Z,49.76
2023-03-03T07:51:29.233Z,49.65
2023-03-03T07:54:31.689Z,49.67
2023-03-03T07:57:28.157Z,49.48
2023-03-03T08:00:17.132Z,49.73
2023-03-03T08:02:47.702Z,49.57
2023-03-03T08:05:31.505Z,49.57
2023-03-03T08:08:10.690Z,49.31
2023-03-03T08:10:43.512Z,49.83
2023-03-03T08:13:17.667Z,49.69
2023-03-03T08:15:46.071Z,49.48
2023-03-03T08:18:24.354Z,49.58
2023-03-03T08:20:53.340Z,50.03
2023-03-03T08:23:20.367Z,49.82
2023-03-03T08:25:47.834Z,49.52
2023-03-03T08:28:14.680Z,49.67
2023-03-03T08:30:42.105Z,49.68
2023-03-03T08:33:08.891Z,49.90
2023-03-03T08:35:36.096Z,49.83
2023-03-03T08:38:03.053Z,49.92
2023-03-03T08:40:31.143Z,49.80
2023-03-03T08:42:58.274Z,49.44
2023-03-03T08:45:26.068Z,49.70
2023-03-03T08:47:52.910Z,49.47
2023-03-03T08:50:38.756Z,49.62
2023-03-03T08:53:05.939Z,49.81
2023-03-03T08:55:32.733Z,49.98
2023-03-03T08:57:59.830Z,49.72
2023-03-03T09:00:26.691Z,49.99
2023-03-03T09:02:53.941Z,49.79
2023-03-03T09:05:20.924Z,49.70
2023-03-03T09:07:48.331Z,49.95
2023-03-03T09:10:17.182Z,49.72
2023-03-03T09:12:48.679Z,49.70
2023-03-03T09:15:26.896Z,50.01
2023-03-03T09:17:54.015Z,49.61
2023-03-03T09:20:29.782Z,49.82
2023-03-03T09:22:56.904Z,49.99
2023-03-03T09:25:30.305Z,49.89
2023-03-03T09:27:57.443Z,49.67
2023-03-03T09:30:29.820Z,49.78
2023-03-03T09:32:57.350Z,50.00
2023-03-03T09:35:36.118Z,49.85
2023-03-03T09:38:30.649Z,49.79
2023-03-03T09:41:11.217Z,49.77
2023-03-03T09:44:01.171Z,49.96
2023-03-03T09:46:52.367Z,49.82
2023-03-03T09:49:33.181Z,49.81
2023-03-03T09:52:31.042Z,49.80
2023-03-03T09:55:08.069Z,50.03
2023-03-03T09:58:10.860Z,49.68
2023-03-03T10:01:13.604Z,49.94
2023-03-03T10:03:55.627Z,50.01
2023-03-03T10:06:29.297Z,49.29
2023-03-03T10:08:56.025Z,50.39
2023-03-03T10:11:42.934Z,50.53
2023-03-03T10:14:35.249Z,51.25
2023-03-03T10:17:14.508Z,51.29
2023-03-03T10:19:46.403Z,51.56
2023-03-03T10:22:35.036Z,51.11
2023-03-03T10:25:24.904Z,51.38
2023-03-03T10:28:16.961Z,50.86
2023-03-03T10:31:06.188Z,51.23
2023-03-03T10:34:12.085Z,50.84
2023-03-03T10:36:54.121Z,50.56
2023-03-03T10:39:48.815Z,50.68
2023-03-03T10:42:32.105Z,50.74
2023-03-03T10:45:02.264Z,51.00
2023-03-03T10:48:09.329Z,50.54
2023-03-03T10:50:45.576Z,50.52
2023-03-03T10:53:21.321Z,50.72
2023-03-03T10:55:59.150Z,50.40
2023-03-03T10:58:32.691Z,50.57
2023-03-03T11:01:03.666Z,50.39
2023-03-03T11:03:41.062Z,50.36
2023-03-03T11:06:34.074Z,50.41
2023-03-03T11:09:19.479Z,50.38
2023-03-03T11:11:46.476Z,50.33
2023-03-03T11:14:19.417Z,50.33
2023-03-03T11:17:24.836Z,50.34
2023-03-03T11:20:05.050Z,50.15
2023-03-03T11:22:46.752Z,50.27
2023-03-03T11:25:35.429Z,50.18
2023-03-03T11:28:02.493Z,50.42
2023-03-03T11:30:34.420Z,50.04
2023-03-03T11:33:34.082Z,50.13
2023-03-03T11:36:27.690Z,50.23
2023-03-03T11:38:59.962Z,50.25
2023-03-03T11:41:46.055Z,50.13
2023-03-03T11:44:19.071Z,49.91
2023-03-03T11:47:03.999Z,50.11
2023-03-03T11:49:50.045Z,50.06
2023-03-03T11:52:22.243Z,49.98
2023-03-03T11:55:02.624Z,50.12
2023-03-03T11:57:37.039Z,50.13
2023-03-03T12:00:16.534Z,49.79
2023-03-03T12:02:52.604Z,49.83
2023-03-03T12:05:28.994Z,50.13
2023-03-03T12:08:19.320Z,49.75
2023-03-03T12:10:49.266Z,49.72
2023-03-03T12:13:30.315Z,49.70
2023-03-03T12:16:04.637Z,50.08
2023-03-03T12:18:53.963Z,50.19
2023-03-03T12:21:36.211Z,50.03
2023-03-03T12:24:08.467Z,50.07
2023-03-03T12:26:45.009Z,49.88
2023-03-03T12:29:12.146Z,49.79
2023-03-03T12:32:00.381Z,50.01
2023-03-03T12:34:41.417Z,49.86
2023-03-03T12:37:23.234Z,49.94
2023-03-03T12:39:52.895Z,49.78
2023-03-03T12:42:42.362Z,50.06
2023-03-03T12:45:24.506Z,49.93
2023-03-03T12:47:57.981Z,49.79
2023-03-03T12:50:34.590Z,49.85
2023-03-03T12:53:09.900Z,49.90
2023-03-03T12:55:52.104Z,50.25
2023-03-03T12:58:31.341Z,50.00
2023-03-03T13:01:07.176Z,49.93
2023-03-03T13:03:58.301Z,49.78
2023-03-03T13:06:51.870Z,50.05
2023-03-03T13:09:39.279Z,50.12
2023-03-03T13:12:18.192Z,49.95
2023-03-03T13:14:54.591Z,50.14
2023-03-03T13:17:25.094Z,49.78
2023-03-03T13:20:03.183Z,50.02
2023-03-03T13:22:39.060Z,50.06
2023-03-03T13:25:09.531Z,49.83
2023-03-03T13:27:39.852Z,49.92
2023-03-03T13:30:22.929Z,49.93
2023-03-03T13:33:31.259Z,49.74
2023-03-03T13:36:01.238Z,49.85
2023-03-03T13:38:37.433Z,49.78
2023-03-03T13:41:29.745Z,50.07
2023-03-03T13:44:01.533Z,50.11
2023-03-03T13:46:43.416Z,49.64
2023-03-03T13:49:28.675Z,49.83
2023-03-03T13:52:06.525Z,50.05
2023-03-03T13:54:42.832Z,49.83
2023-03-03T13:57:18.983Z,50.00
2023-03-03T13:59:51.704Z,49.85
2023-03-03T14:02:46.095Z,50.06
2023-03-03T14:05:44.730Z,50.11
2023-03-03T14:08:18.046Z,49.82
2023-03-03T14:11:10.747Z,50.22
2023-03-03T14:13:49.515Z,49.94
2023-03-03T14:16:20.890Z,49.95
2023-03-03T14:18:57.175Z,49.90
2023-03-03T14:21:28.367Z,49.84
2023-03-03T14:24:16.692Z,50.03
2023-03-03T14:26:54.185Z,50.16
2023-03-03T14:29:27.527Z,49.91
2023-03-03T14:32:01.749Z,50.05
2023-03-03T14:34:39.764Z,49.69
2023-03-03T14:37:27.486Z,49.85
2023-03-03T14:40:22.544Z,49.71
2023-03-03T14:42:52.393Z,49.86
2023-03-03T14:45:29.579Z,49.94
2023-03-03T14:47:56.963Z,50.08
2023-03-03T14:50:30.876Z,49.90
2023-03-03T14:53:18.866Z,50.17
2023-03-03T14:55:47.807Z,49.72
2023-03-03T14:58:39.456Z,49.81
2023-03-03T15:01:35.244Z,49.61
2023-03-03T15:04:10.614Z,49.77
2023-03-03T15:06:37.879Z,49.73
2023-03-03T15:09:45.586Z,49.73
2023-03-03T15:12:26.737Z,49.70
2023-03-03T15:15:06.269Z,49.95
2023-03-03T15:17:37.346Z,49.72
2023-03-03T15:20:32.212Z,49.46
2023-03-03T15:23:09.183Z,49.63
2023-03-03T15:25:55.989Z,49.51
2023-03-03T15:28:52.740Z,49.24
2023-03-03T15:31:32.905Z,49.96
2023-03-03T15:34:13.597Z,49.77
2023-03-03T15:37:31.067Z,49.82
2023-03-03T15:40:04.146Z,49.72
2023-03-03T15:42:42.929Z,49.54
2023-03-03T15:45:25.417Z,49.71
2023-03-03T15:48:10.940Z,49.91
2023-03-03T15:50:37.904Z,49.63
2023-03-03T15:53:05.827Z,50.13
2023-03-03T15:55:44.773Z,49.73
2023-03-03T15:58:30.282Z,49.45
2023-03-03T16:01:03.375Z,49.51
2023-03-03T16:03:36.456Z,49.99
2023-03-03T16:06:06.863Z,49.62
2023-03-03T16:09:02.752Z,49.58
2023-03-03T16:11:34.986Z,49.61
2023-03-03T16:14:16.341Z,49.63
2023-03-03T16:17:14.633Z,49.58
2023-03-03T16:19:49.672Z,49.58
2023-03-03T16:22:30.128Z,49.32
2023-03-03T16:25:07.251Z,49.65
2023-03-03T16:27:48.510Z,49.70
2023-03-03T16:30:28.438Z,49.67
2023-03-03T16:33:04.600Z,49.51
2023-03-03T16:35:39.659Z,49.72
2023-03-03T16:38:11.501Z,49.43
2023-03-03T16:40:49.771Z,49.47
2023-03-03T16:43:16.895Z,49.55
2023-03-03T16:45:43.725Z,49.59
2023-03-03T16:48:20.924Z,49.81
2023-03-03T16:50:57.398Z,49.46
2023-03-03T16:53:39.809Z,49.54
2023-03-03T16:56:09.391Z,49.73
2023-03-03T16:58:55.261Z,49.58
2023-03-03T17:01:28.821Z,49.65
2023-03-03T17:04:02.404Z,49.64
2023-03-03T17:06:31.341Z,49.35
2023-03-03T17:09:31.800Z,49.63
2023-03-03T17:12:11.468Z,49.63
2023-03-03T17:14:47.791Z,49.70
2023-03-03T17:17:36.844Z,49.71
2023-03-03T17:20:16.339Z,49.50
2023-03-03T17:23:03.286Z,49.58
2023-03-03T17:25:43.059Z,49.67
2023-03-03T17:28:19.085Z,49.71
2023-03-03T17:30:53.418Z,49.30
2023-03-03T17:33:23.235Z,49.77
2023-03-03T17:36:16.307Z,49.51
2023-03-03T17:39:06.334Z,49.48
2023-03-03T17:41:40.836Z,49.74
2023-03-03T17:44:10.598Z,49.59
2023-03-03T17:47:08.322Z,49.62
2023-03-03T17:50:13.996Z,49.54
2023-03-03T17:52:44.020Z,49.54
2023-03-03T17:55:23.709Z,49.29
2023-03-03T17:58:03.022Z,49.53
2023-03-03T18:01:00.504Z,49.58
2023-03-03T18:03:52.195Z,49.32
2023-03-03T18:06:27.534Z,49.50
2023-03-03T18:09:23.964Z,49.27
2023-03-03T18:11:50.621Z,49.37
2023-03-03T18:14:36.426Z,49.56
2023-03-03T18:17:31.038Z,49.27
2023-03-03T18:20:10.310Z,49.48
2023-03-03T18:22:45.982Z,49.39
2023-03-03T18:25:14.353Z,49.51
2023-03-03T18:27:42.635Z,49.75
2023-03-03T18:30:20.398Z,49.60
2023-03-03T18:32:56.241Z,49.66
2023-03-03T18:35:38.725Z,49.65
2023-03-03T18:38:17.926Z,49.61
2023-03-03T18:41:10.011Z,49.83
2023-03-03T18:43:45.801Z,49.70
2023-03-03T18:46:24.716Z,49.08
2023-03-03T18:49:00.776Z,50.18
2023-03-03T18:51:40.125Z,50.38
2023-03-03T18:54:13.650Z,50.69
2023-03-03T18:56:55.230Z,50.48
2023-03-03T18:59:34.218Z,50.68
2023-03-03T19:02:13.380Z,50.70
2023-03-03T19:04:44.892Z,50.35
2023-03-03T19:07:28.490Z,50.32
2023-03-03T19:10:01.457Z,50.49
2023-03-03T19:12:51.637Z,50.54
2023-03-03T19:15:36.664Z,50.78
2023-03-03T19:18:15.058Z,50.56
2023-03-03T19:20:46.014Z,50.36
2023-03-03T19:23:17.741Z,50.35
2023-03-03T19:25:44.581Z,50.23
2023-03-03T19:28:14.755Z,50.14
2023-03-03T19:31:17.139Z,50.56
2023-03-03T19:33:57.113Z,50.35
2023-03-03T19:36:49.017Z,50.68
2023-03-03T19:39:39.155Z,50.39
2023-03-03T19:42:14.204Z,50.58
2023-03-03T19:45:11.757Z,50.52
2023-03-03T19:47:59.891Z,50.64
2023-03-03T19:51:05.486Z,50.68
2023-03-03T19:53:39.517Z,50.50
2023-03-03T19:56:10.896Z,50.58
2023-03-03T19:58:50.688Z,50.25
2023-03-03T20:01:38.073Z,50.77
2023-03-03T20:04:26.224Z,51.02
2023-03-03T20:06:57.900Z,50.84
2023-03-03T20:09:33.849Z,50.53
2023-03-03T20:12:16.097Z,50.69
2023-03-03T20:14:51.880Z,50.67
2023-03-03T20:17:29.495Z,50.65
2023-03-03T20:19:57.749Z,51.01
2023-03-03T20:22:31.572Z,51.05
2023-03-03T20:25:19.979Z,50.57
2023-03-03T20:27:55.346Z,50.93
2023-03-03T20:30:59.157Z,50.66
2023-03-03T20:33:44.124Z,50.66
2023-03-03T20:36:43.261Z,50.87
2023-03-03T20:39:33.330Z,50.96
2023-03-03T20:42:15.354Z,50.95
2023-03-03T20:44:58.612Z,51.01
2023-03-03T20:47:25.338Z,50.75
2023-03-03T20:50:22.653Z,50.83
2023-03-03T20:53:24.596Z,50.95
2023-03-03T20:56:16.848Z,50.87
2023-03-03T20:59:01.372Z,51.14
2023-03-03T21:01:36.611Z,51.12
2023-03-03T21:04:22.049Z,51.26
2023-03-03T21:06:49.155Z,51.10
2023-03-03T21:09:32.661Z,50.78
2023-03-03T21:12:00.642Z,51.02
2023-03-03T21:14:36.898Z,50.97
2023-03-03T21:17:27.045Z,51.29
2023-03-03T21:19:53.799Z,51.24
2023-03-03T21:22:20.855Z,51.10
2023-03-03T21:24:55.498Z,51.29
2023-03-03T21:27:33.254Z,51.37
2023-03-03T21:30:14.056Z,51.30
2023-03-03T21:32:43.000Z,51.39
2023-03-03T21:35:14.668Z,51.37
2023-03-03T21:37:53.281Z,51.25
2023-03-03T21:40:25.788Z,51.03
2023-03-03T21:42:54.663Z,51.40
2023-03-03T21:45:21.872Z,51.19
2023-03-03T21:47:48.701Z,51.13
2023-03-03T21:50:16.443Z,51.23
2023-03-03T21:52:43.226Z,51.41
2023-03-03T21:55:10.486Z,51.05
2023-03-03T21:57:37.295Z,51.18
2023-03-03T22:00:05.651Z,51.34
2023-03-03T22:02:32.470Z,51.55
2023-03-03T22:04:59.737Z,51.04
2023-03-03T22:07:26.530Z,51.12
2023-03-03T22:09:53.612Z,51.04
2023-03-03T22:12:20.429Z,51.15
2023-03-03T22:14:47.571Z,51.40
2023-03-03T22:17:14.349Z,51.24
2023-03-03T22:19:41.471Z,51.20
2023-03-03T22:22:08.227Z,51.23
2023-03-03T22:24:35.284Z,51.06
2023-03-03T22:27:03.492Z,51.11
2023-03-03T22:29:30.603Z,51.04
2023-03-03T22:31:57.457Z,51.21
2023-03-03T22:34:24.750Z,51.28
2023-03-03T22:36:51.583Z,51.12
2023-03-03T22:39:18.681Z,51.30
2023-03-03T22:41:45.413Z,51.37
2023-03-03T22:44:12.497Z,51.10
2023-03-03T22:46:39.383Z,51.47
2023-03-03T22:49:06.528Z,51.07
2023-03-03T22:51:33.327Z,51.04
2023-03-03T22:54:00.423Z,51.47
2023-03-03T22:56:27.179Z,51.30
2023-03-03T22:58:54.230Z,51.43
2023-03-03T23:01:21.030Z,51.50
2023-03-03T23:03:48.076Z,51.10
2023-03-03T23:06:14.866Z,50.93
2023-03-03T23:08:41.947Z,50.90
2023-03-03T23:11:08.720Z,51.30
2023-03-03T23:13:35.820Z,50.88
2023-03-03T23:16:03.081Z,51.09
2023-03-03T23:18:30.232Z,51.25
2023-03-03T23:20:57.042Z,51.27
2023-03-03T23:23:24.252Z,51.22
2023-03-03T23:25:51.065Z,51.01
2023-03-03T23:28:19.301Z,51.32
2023-03-03T23:30:46.242Z,51.31
2023-03-03T23:33:13.408Z,51.06
2023-03-03T23:35:40.441Z,51.19
2023-03-03T23:38:07.559Z,51.15
2023-03-03T23:40:34.342Z,51.28
2023-03-03T23:43:01.405Z,51.07
2023-03-03T23:45:28.182Z,51.44
2023-03-03T23:47:55.195Z,50.93
2023-03-03T23:50:21.947Z,51.11
2023-03-03T23:52:49.126Z,51.35
2023-03-03T23:55:16.162Z,50.98
2023-03-03T23:57:43.244Z,51.19
